Time;durP1;ratioP1;P1;durP2;ratioP2;P2;SDS_P1;SDS_P2;PMS_P1;PMS_P2;Temp;Humidity;BMP_temperature;BMP_pressure;BME280_temperature;BME280_humidity;BME280_pressure;Samples;Min_cycle;Max_cycle;Signal;HPM_P1;HPM_P2
2023/08/18 00:00:16;;;;;;;0.70;0.60;;;;;;;24.40;64.57;95287.88;5111264;28;20464;-56
2023/08/18 00:02:45;;;;;;;0.70;0.57;;;;;;;24.45;64.71;95284.88;5110885;28;20949;-56
2023/08/18 00:05:13;;;;;;;2.10;0.50;;;;;;;24.50;64.35;95292.72;5085868;28;20443;-56
2023/08/18 00:07:41;;;;;;;0.40;0.40;;;;;;;24.88;62.84;95291.91;5111516;28;20436;-56
2023/08/18 00:10:11;;;;;;;0.40;0.30;;;;;;;25.11;61.97;95285.34;5111586;28;20501;-55
2023/08/18 00:12:40;;;;;;;0.50;0.30;;;;;;;25.22;61.20;95277.38;5111579;28;20443;-56
2023/08/18 00:15:08;;;;;;;0.50;0.30;;;;;;;25.32;60.94;95282.19;5115098;28;20439;-55
2023/08/18 00:17:37;;;;;;;0.60;0.60;;;;;;;25.37;60.41;95283.81;5114612;28;20475;-56
2023/08/18 00:20:08;;;;;;;0.40;0.30;;;;;;;25.34;60.80;95279.13;5114311;27;20440;-56
2023/08/18 00:22:37;;;;;;;0.50;0.30;;;;;;;25.22;60.61;95278.16;5114681;28;20963;-56
2023/08/18 00:25:06;;;;;;;0.40;0.30;;;;;;;25.08;61.83;95274.44;5115666;28;20440;-56
2023/08/18 00:27:37;;;;;;;0.50;0.30;;;;;;;25.01;62.58;95274.31;5115169;28;20434;-56
2023/08/18 00:30:07;;;;;;;0.70;0.50;;;;;;;24.92;62.56;95281.91;5115524;28;20462;-56
2023/08/18 00:32:35;;;;;;;0.40;0.30;;;;;;;25.02;62.17;95273.94;5114524;27;20952;-56
2023/08/18 00:35:04;;;;;;;0.53;0.43;;;;;;;25.04;62.21;95277.09;5114529;28;20498;-56
2023/08/18 00:37:33;;;;;;;0.40;0.30;;;;;;;25.05;61.84;95275.94;5114937;28;20562;-56
2023/08/18 00:40:01;;;;;;;0.40;0.30;;;;;;;24.96;62.75;95261.84;5114245;28;20477;-56
2023/08/18 00:42:29;;;;;;;0.50;0.33;;;;;;;24.91;63.40;95281.13;5089119;28;20462;-55
2023/08/18 00:44:59;;;;;;;0.40;0.30;;;;;;;24.75;62.88;95247.88;5115019;28;20439;-56
2023/08/18 00:47:28;;;;;;;0.53;0.40;;;;;;;24.81;63.35;95278.22;5114489;28;20534;-56
2023/08/18 00:49:58;;;;;;;0.40;0.30;;;;;;;24.76;62.85;95265.72;5114114;28;20482;-56
2023/08/18 00:52:27;;;;;;;0.40;0.33;;;;;;;24.53;64.46;95289.28;5114762;28;20864;-56
2023/08/18 00:54:56;;;;;;;0.70;0.40;;;;;;;24.52;64.52;95287.72;5114357;28;20478;-55
2023/08/18 00:57:24;;;;;;;0.40;0.30;;;;;;;24.58;64.85;95297.13;5114226;27;20474;-56
2023/08/18 00:59:53;;;;;;;2.50;0.30;;;;;;;24.36;65.28;95293.19;5114557;28;20428;-56
2023/08/18 01:02:23;;;;;;;0.60;0.60;;;;;;;24.32;65.47;95291.56;5115001;28;20792;-56
2023/08/18 01:04:52;;;;;;;0.60;0.30;;;;;;;24.41;65.03;95297.56;5113948;28;20439;-56
2023/08/18 01:07:20;;;;;;;0.53;0.53;;;;;;;24.14;65.83;95302.03;5114788;28;20440;-56
2023/08/18 01:09:49;;;;;;;0.60;0.33;;;;;;;23.71;66.71;95250.81;5114134;28;20443;-56
2023/08/18 01:12:31;;;;;;;2.60;0.50;;;;;;;23.58;68.05;95271.78;5114385;28;20436;-57
2023/08/18 01:15:12;;;;;;;15.90;0.90;;;;;;;23.68;68.24;95301.00;5114226;28;20452;-56
2023/08/18 01:17:49;;;;;;;0.60;0.50;;;;;;;23.68;68.68;95295.59;5113481;28;20479;-55
2023/08/18 01:20:18;;;;;;;0.97;0.50;;;;;;;23.69;68.95;95299.09;5114112;28;20941;-56
2023/08/18 01:22:56;;;;;;;0.40;0.30;;;;;;;23.77;68.65;95290.78;5113744;28;20447;-56
2023/08/18 01:25:24;;;;;;;4.00;0.77;;;;;;;23.25;69.96;95255.16;5113889;28;20535;-56
2023/08/18 01:27:54;;;;;;;0.60;0.60;;;;;;;23.33;70.77;95287.41;5087367;28;20847;-56
2023/08/18 01:30:28;;;;;;;0.87;0.87;;;;;;;23.45;70.80;95296.63;5113148;28;20493;-55
2023/08/18 01:33:02;;;;;;;0.50;0.40;;;;;;;23.30;71.78;95287.34;5102349;28;20444;-55
2023/08/18 01:35:32;;;;;;;0.77;0.67;;;;;;;23.24;72.01;95294.94;5113949;28;20448;-56
2023/08/18 01:38:04;;;;;;;0.53;0.30;;;;;;;23.33;72.05;95292.84;5113979;28;20544;-55
2023/08/18 01:40:34;;;;;;;0.60;0.40;;;;;;;23.26;72.94;95286.47;5113908;28;20431;-56
2023/08/18 01:43:03;;;;;;;0.60;0.50;;;;;;;23.41;71.38;95298.44;5113489;28;20435;-56
2023/08/18 01:45:33;;;;;;;1.00;0.90;;;;;;;23.11;71.96;95260.22;5113385;28;20556;-56
2023/08/18 01:48:01;;;;;;;0.40;0.30;;;;;;;23.25;72.36;95295.72;5113346;28;20436;-55
2023/08/18 01:50:29;;;;;;;0.60;0.40;;;;;;;23.32;72.77;95287.78;5113333;28;20443;-55
2023/08/18 01:52:58;;;;;;;0.60;0.40;;;;;;;23.55;71.48;95294.16;5113464;28;20444;-54
2023/08/18 01:55:27;;;;;;;0.90;0.70;;;;;;;23.91;70.05;95293.00;5099483;28;20428;-55
2023/08/18 01:57:56;;;;;;;0.47;0.33;;;;;;;23.63;70.26;95290.47;5112843;28;20463;-55
2023/08/18 02:00:24;;;;;;;0.70;0.60;;;;;;;23.40;71.13;95289.56;5113208;28;21042;-57
2023/08/18 02:02:55;;;;;;;0.80;0.80;;;;;;;23.34;71.71;95293.63;5112874;28;20432;-57
2023/08/18 02:05:24;;;;;;;0.83;0.70;;;;;;;23.13;71.04;95237.09;5113333;28;20440;-57
2023/08/18 02:07:52;;;;;;;0.90;0.67;;;;;;;23.62;70.73;95282.69;5112592;28;20439;-55
2023/08/18 02:10:21;;;;;;;0.70;0.53;;;;;;;23.34;71.78;95285.50;5113130;28;20439;-55
2023/08/18 02:12:50;;;;;;;0.63;0.60;;;;;;;23.20;72.41;95282.44;5110043;28;20950;-55
2023/08/18 02:15:19;;;;;;;0.80;0.80;;;;;;;23.09;73.18;95276.81;5103047;28;20436;-55
2023/08/18 02:17:47;;;;;;;0.50;0.40;;;;;;;23.20;72.83;95283.25;5112311;28;20497;-55
2023/08/18 02:20:15;;;;;;;0.90;0.40;;;;;;;23.17;72.85;95275.81;5112708;28;20444;-55
2023/08/18 02:22:44;;;;;;;1.00;0.60;;;;;;;22.99;73.55;95266.50;5112707;27;20938;-55
2023/08/18 02:25:12;;;;;;;0.97;0.60;;;;;;;22.98;73.98;95283.06;5112739;28;20869;-55
2023/08/18 02:27:40;;;;;;;1.27;1.17;;;;;;;22.87;74.85;95284.72;5112577;28;20440;-55
2023/08/18 02:30:11;;;;;;;5.80;1.30;;;;;;;22.99;74.27;95279.25;5113040;28;20482;-55
2023/08/18 02:32:40;;;;;;;0.93;0.93;;;;;;;23.26;72.33;95276.44;5112381;28;20516;-55
2023/08/18 02:35:09;;;;;;;0.97;0.53;;;;;;;23.26;72.43;95281.06;5112193;28;20953;-55
2023/08/18 02:37:37;;;;;;;0.50;0.30;;;;;;;23.42;71.37;95283.78;5111860;28;20440;-55
2023/08/18 02:40:08;;;;;;;1.17;0.73;;;;;;;23.27;71.99;95280.72;5112833;28;20523;-55
2023/08/18 02:42:37;;;;;;;0.50;0.50;;;;;;;23.28;71.69;95281.50;5112722;28;20443;-55
2023/08/18 02:45:06;;;;;;;0.73;0.73;;;;;;;23.22;71.86;95280.19;5112574;28;20440;-55
2023/08/18 02:47:38;;;;;;;0.50;0.40;;;;;;;22.83;73.11;95254.91;5112854;28;20428;-55
2023/08/18 02:50:07;;;;;;;2.97;1.40;;;;;;;22.87;73.72;95284.72;5098137;28;20467;-55
2023/08/18 02:52:36;;;;;;;5.80;0.77;;;;;;;22.86;73.59;95286.66;5112440;28;20914;-56
2023/08/18 02:55:05;;;;;;;1.07;1.07;;;;;;;22.80;73.39;95277.22;5112060;28;20432;-55
2023/08/18 02:57:33;;;;;;;0.63;0.50;;;;;;;22.94;73.21;95288.41;5112446;28;20439;-56
2023/08/18 03:00:02;;;;;;;0.50;0.40;;;;;;;23.00;73.23;95288.91;5111787;28;20475;-55
2023/08/18 03:02:31;;;;;;;0.50;0.30;;;;;;;23.08;72.82;95282.53;5112216;28;20492;-55
2023/08/18 03:05:02;;;;;;;0.77;0.77;;;;;;;23.26;71.82;95286.47;5111691;28;20440;-55
2023/08/18 03:07:31;;;;;;;1.73;1.63;;;;;;;22.75;72.52;95235.03;5112025;28;20435;-55
2023/08/18 03:09:59;;;;;;;0.70;0.70;;;;;;;23.03;72.29;95282.81;5085572;28;20949;-55
2023/08/18 03:12:28;;;;;;;0.60;0.60;;;;;;;23.13;71.66;95284.97;5112078;28;20480;-55
2023/08/18 03:14:56;;;;;;;0.63;0.60;;;;;;;22.93;73.18;95286.03;5111746;28;20427;-56
2023/08/18 03:17:25;;;;;;;0.87;0.50;;;;;;;23.14;72.25;95294.69;5111671;28;20469;-55
2023/08/18 03:19:53;;;;;;;0.93;0.80;;;;;;;22.87;73.37;95287.44;5111504;28;20467;-55
2023/08/18 03:22:23;;;;;;;0.97;0.97;;;;;;;22.68;73.66;95261.88;5112085;28;20910;-55
2023/08/18 03:24:51;;;;;;;0.67;0.50;;;;;;;22.81;73.74;95283.41;5111634;28;20808;-55
2023/08/18 03:27:20;;;;;;;1.77;0.80;;;;;;;22.82;73.52;95282.28;5111465;28;20937;-55
2023/08/18 03:29:48;;;;;;;0.73;0.73;;;;;;;22.81;72.81;95272.59;5111255;28;20508;-55
2023/08/18 03:32:16;;;;;;;1.03;0.93;;;;;;;22.84;73.67;95290.81;5111993;28;20507;-55
2023/08/18 03:34:44;;;;;;;0.50;0.40;;;;;;;22.84;73.67;95298.94;5111607;28;20440;-55
2023/08/18 03:37:13;;;;;;;0.50;0.40;;;;;;;22.86;74.22;95288.56;5111486;28;20454;-55
2023/08/18 03:39:43;;;;;;;0.77;0.50;;;;;;;22.83;73.33;95300.06;5111747;28;20878;-55
2023/08/18 03:42:11;;;;;;;0.70;0.67;;;;;;;22.64;72.85;95249.41;5111808;28;20440;-55
2023/08/18 03:44:40;;;;;;;0.60;0.57;;;;;;;22.93;72.66;95292.22;5110626;28;20440;-55
2023/08/18 03:47:08;;;;;;;0.67;0.60;;;;;;;22.73;71.95;95245.41;5111788;28;20432;-55
2023/08/18 03:49:37;;;;;;;0.63;0.63;;;;;;;23.09;71.69;95292.22;5115120;28;20531;-56
2023/08/18 03:52:06;;;;;;;0.60;0.50;;;;;;;23.19;71.04;95300.63;5109464;28;20433;-56
2023/08/18 03:54:34;;;;;;;0.70;0.47;;;;;;;23.39;70.51;95301.50;5108776;28;20432;-56
2023/08/18 03:57:04;;;;;;;0.40;0.30;;;;;;;23.50;69.65;95313.38;5115922;28;20588;-56
2023/08/18 03:59:32;;;;;;;0.50;0.47;;;;;;;23.46;70.35;95298.97;5115315;28;21009;-55
2023/08/18 04:02:00;;;;;;;0.80;0.53;;;;;;;23.42;69.46;95300.81;5115134;28;20440;-55
2023/08/18 04:04:29;;;;;;;0.90;0.40;;;;;;;22.97;70.23;95244.44;5115511;28;20520;-53
2023/08/18 04:06:57;;;;;;;1.07;0.30;;;;;;;23.71;74.49;95307.63;5115345;28;20436;-53
2023/08/18 04:09:26;;;;;;;0.40;0.40;;;;;;;23.85;70.76;95307.97;5115006;28;20440;-52
2023/08/18 04:11:54;;;;;;;1.03;0.50;;;;;;;23.50;70.05;95294.44;5115114;28;20448;-52
2023/08/18 04:14:24;;;;;;;0.57;0.57;;;;;;;23.69;68.64;95299.88;5115477;28;20431;-53
2023/08/18 04:16:53;;;;;;;1.93;1.83;;;;;;;23.57;69.26;95296.50;5115185;28;20443;-53
2023/08/18 04:19:21;;;;;;;0.73;0.63;;;;;;;23.55;68.66;95302.28;5114931;28;21050;-53
2023/08/18 04:21:49;;;;;;;0.63;0.63;;;;;;;23.17;68.81;95259.59;5115099;28;20977;-53
2023/08/18 04:24:17;;;;;;;1.47;0.90;;;;;;;23.39;69.58;95304.22;5101779;28;20948;-53
2023/08/18 04:26:46;;;;;;;0.93;0.80;;;;;;;23.42;69.41;95302.72;5115067;28;20957;-53
2023/08/18 04:29:14;;;;;;;1.23;1.13;;;;;;;23.64;68.67;95304.78;5100727;28;20463;-53
2023/08/18 04:31:44;;;;;;;2.30;1.50;;;;;;;23.68;69.59;95301.00;5114992;27;20436;-52
2023/08/18 04:34:12;;;;;;;2.90;1.50;;;;;;;23.80;70.44;95287.38;5114208;28;20436;-52
2023/08/18 04:36:41;;;;;;;5.07;2.93;;;;;;;24.09;68.87;95306.94;5114009;28;20432;-52
2023/08/18 04:39:11;;;;;;;3.47;2.40;;;;;;;24.02;68.13;95275.06;5113883;27;20540;-52
2023/08/18 04:41:39;;;;;;;3.93;1.90;;;;;;;24.22;67.14;95301.06;5114058;28;20641;-52
2023/08/18 04:44:10;;;;;;;2.87;2.67;;;;;;;24.16;66.31;95269.97;5101805;28;20941;-52
2023/08/18 04:46:38;;;;;;;0.80;0.70;;;;;;;24.31;64.18;95314.41;5113741;28;20466;-52
2023/08/18 04:49:08;;;;;;;0.80;0.80;;;;;;;24.33;64.32;95312.91;5113610;28;20475;-52
2023/08/18 04:51:37;;;;;;;0.63;0.63;;;;;;;24.38;64.24;95293.66;5114310;28;20486;-52
2023/08/18 04:54:05;;;;;;;0.70;0.60;;;;;;;24.39;64.31;95316.09;5114404;28;20945;-52
2023/08/18 04:56:34;;;;;;;0.63;0.63;;;;;;;24.73;64.33;95314.44;5110820;28;20556;-52
2023/08/18 04:59:02;;;;;;;0.60;0.37;;;;;;;24.59;64.28;95312.25;5103850;28;20447;-52
2023/08/18 05:01:31;;;;;;;0.50;0.50;;;;;;;24.82;64.83;95310.38;5113671;28;20436;-51
2023/08/18 05:04:00;;;;;;;0.50;0.30;;;;;;;25.00;63.74;95316.13;5113990;28;20448;-52
2023/08/18 05:06:29;;;;;;;0.80;0.73;;;;;;;24.88;62.83;95317.09;5114294;28;20439;-52
2023/08/18 05:08:58;;;;;;;0.60;0.50;;;;;;;25.02;61.59;95311.16;5114662;28;20447;-52
2023/08/18 05:11:26;;;;;;;0.90;0.40;;;;;;;24.86;62.01;95313.16;5114297;28;20470;-52
2023/08/18 05:13:54;;;;;;;2.50;0.60;;;;;;;24.86;61.70;95307.75;5113917;28;20448;-52
2023/08/18 05:16:23;;;;;;;0.50;0.40;;;;;;;25.08;61.59;95312.41;5114034;28;20503;-52
2023/08/18 05:18:51;;;;;;;0.97;0.90;;;;;;;24.97;61.25;95309.50;5113918;28;20523;-52
2023/08/18 05:21:23;;;;;;;0.70;0.60;;;;;;;24.98;60.93;95313.00;5114300;28;20552;-51
2023/08/18 05:23:53;;;;;;;0.80;0.40;;;;;;;25.12;60.37;95310.53;5113789;28;20954;-51
2023/08/18 05:26:21;;;;;;;0.90;0.60;;;;;;;25.19;60.60;95307.94;5114005;28;21050;-51
2023/08/18 05:28:50;;;;;;;0.50;0.50;;;;;;;25.18;59.91;95311.78;5113512;28;20459;-51
2023/08/18 05:31:18;;;;;;;0.80;0.80;;;;;;;25.34;59.81;95308.97;5114001;28;20463;-51
2023/08/18 05:33:46;;;;;;;1.43;1.33;;;;;;;25.34;59.95;95308.97;5110482;28;20455;-51
2023/08/18 05:36:15;;;;;;;0.60;0.60;;;;;;;25.47;59.49;95313.09;5103135;28;20472;-51
2023/08/18 05:38:43;;;;;;;0.60;0.40;;;;;;;25.70;59.45;95311.13;5113133;28;20872;-51
2023/08/18 05:41:14;;;;;;;0.77;0.77;;;;;;;25.71;58.59;95310.75;5113176;28;20580;-51
2023/08/18 05:43:43;;;;;;;0.70;0.70;;;;;;;25.77;58.35;95317.44;5113326;28;20435;-51
2023/08/18 05:46:11;;;;;;;4.20;1.23;;;;;;;25.99;57.51;95304.16;5113766;28;20435;-51
2023/08/18 05:48:40;;;;;;;0.50;0.40;;;;;;;26.08;57.84;95310.91;5113084;28;21009;-50
2023/08/18 05:51:08;;;;;;;0.70;0.70;;;;;;;26.33;56.32;95294.94;5113519;28;20439;-50
2023/08/18 05:53:36;;;;;;;0.53;0.53;;;;;;;26.64;55.87;95308.09;5113229;28;20431;-51
2023/08/18 05:56:05;;;;;;;0.40;0.30;;;;;;;26.96;55.66;95303.84;5113676;28;20501;-50
2023/08/18 05:58:35;;;;;;;0.97;0.87;;;;;;;27.07;54.52;95303.91;5086173;28;20467;-52
2023/08/18 06:01:04;;;;;;;0.60;0.60;;;;;;;26.88;53.76;95274.22;5112475;28;20467;-52
2023/08/18 06:03:34;;;;;;;1.67;0.83;;;;;;;27.09;53.45;95304.34;5112788;27;20432;-52
2023/08/18 06:06:02;;;;;;;0.50;0.50;;;;;;;27.38;54.09;95313.53;5105219;28;20494;-52
2023/08/18 06:08:34;;;;;;;1.17;1.07;;;;;;;27.69;52.08;95281.13;5112805;28;20475;-52
2023/08/18 06:11:02;;;;;;;0.60;0.40;;;;;;;28.07;52.31;95301.63;5112547;28;20462;-52
2023/08/18 06:13:31;;;;;;;2.03;0.50;;;;;;;28.57;50.84;95294.47;5112893;28;20463;-51
2023/08/18 06:16:05;;;;;;;0.70;0.70;;;;;;;28.45;49.34;95304.94;5112709;28;20507;-51
2023/08/18 06:18:34;;;;;;;0.70;0.70;;;;;;;28.43;49.32;95277.28;5112658;28;20442;-52
2023/08/18 06:21:03;;;;;;;0.50;0.50;;;;;;;29.05;48.55;95275.91;5112930;28;20471;-52
2023/08/18 06:23:33;;;;;;;2.10;0.90;;;;;;;29.09;46.42;95284.88;5101444;28;20436;-51
2023/08/18 06:26:01;;;;;;;0.40;0.40;;;;;;;29.40;48.60;95303.25;5110980;28;20444;-52
2023/08/18 06:28:30;;;;;;;4.63;1.40;;;;;;;29.75;50.34;95293.50;5113067;28;20435;-52
2023/08/18 06:31:09;;;;;;;0.60;0.50;;;;;;;29.74;49.03;95235.34;5112550;28;20435;-52
2023/08/18 06:33:37;;;;;;;1.57;1.47;;;;;;;29.95;49.29;95297.41;5112400;28;20492;-53
2023/08/18 06:36:06;;;;;;;4.77;0.83;;;;;;;29.67;49.79;95265.41;5112601;28;20482;-52
2023/08/18 06:38:34;;;;;;;0.67;0.57;;;;;;;30.28;48.11;95293.41;5112243;28;20439;-52
2023/08/18 06:41:03;;;;;;;0.50;0.47;;;;;;;30.60;47.34;95277.66;5112531;28;20475;-52
2023/08/18 06:43:31;;;;;;;1.00;0.60;;;;;;;29.92;46.48;95271.63;5111953;28;20841;-52
2023/08/18 06:45:59;;;;;;;1.17;0.53;;;;;;;30.23;46.78;95293.81;5112694;28;20467;-53
2023/08/18 06:48:29;;;;;;;0.50;0.40;;;;;;;30.79;44.78;95296.31;5112440;28;20479;-53
2023/08/18 06:50:58;;;;;;;0.40;0.40;;;;;;;31.21;45.38;95293.38;5112090;28;20492;-53
2023/08/18 06:53:27;;;;;;;0.43;0.37;;;;;;;31.75;43.67;95291.03;5112360;28;20527;-53
2023/08/18 06:55:57;;;;;;;0.50;0.33;;;;;;;32.10;42.69;95287.97;5112832;28;20432;-53
2023/08/18 06:58:30;;;;;;;0.50;0.47;;;;;;;32.64;42.43;95278.72;5112097;28;20462;-53
2023/08/18 07:00:59;;;;;;;0.50;0.40;;;;;;;32.10;41.63;95279.75;5112210;28;20519;-53
2023/08/18 07:03:27;;;;;;;0.60;0.43;;;;;;;32.32;41.08;95286.53;5111710;28;20928;-53
2023/08/18 07:05:57;;;;;;;0.83;0.63;;;;;;;32.71;40.50;95283.34;5112670;28;20831;-53
2023/08/18 07:08:26;;;;;;;0.40;0.37;;;;;;;32.65;39.45;95276.75;5085809;28;20875;-53
2023/08/18 07:10:54;;;;;;;0.40;0.30;;;;;;;33.24;39.96;95283.38;5111173;28;20439;-52
2023/08/18 07:13:23;;;;;;;0.30;0.30;;;;;;;33.76;38.08;95272.75;5112149;28;20438;-52
2023/08/18 07:15:51;;;;;;;0.50;0.40;;;;;;;33.73;38.06;95267.31;5112623;28;20491;-52
2023/08/18 07:18:19;;;;;;;0.40;0.30;;;;;;;34.10;37.00;95269.84;5112472;28;20438;-53
2023/08/18 07:20:48;;;;;;;0.50;0.40;;;;;;;34.12;39.41;95272.16;5111826;28;20470;-53
2023/08/18 07:23:20;;;;;;;0.40;0.30;;;;;;;34.03;36.30;95275.41;5112213;28;20458;-53
2023/08/18 07:25:48;;;;;;;0.50;0.50;;;;;;;34.15;36.49;95266.59;5098481;28;20969;-52
2023/08/18 07:28:16;;;;;;;0.40;0.30;;;;;;;34.14;36.15;95247.75;5111788;28;20435;-52
2023/08/18 07:30:45;;;;;;;0.77;0.73;;;;;;;34.56;34.13;95263.41;5112201;28;20962;-52
2023/08/18 07:33:13;;;;;;;0.50;0.37;;;;;;;33.58;33.89;95264.03;5112203;28;20443;-52
2023/08/18 07:35:41;;;;;;;0.40;0.40;;;;;;;34.08;35.63;95250.19;5107594;28;20810;-52
2023/08/18 07:38:10;;;;;;;0.40;0.30;;;;;;;34.26;33.41;95264.41;5103463;28;20446;-52
2023/08/18 07:40:40;;;;;;;0.50;0.50;;;;;;;34.41;34.12;95262.13;5112183;28;20792;-52
2023/08/18 07:43:10;;;;;;;0.40;0.40;;;;;;;34.56;34.18;95252.41;5111375;28;20228;-52
2023/08/18 07:45:39;;;;;;;0.80;0.40;;;;;;;34.22;34.30;95257.41;5111115;28;20431;-52
2023/08/18 07:48:08;;;;;;;0.47;0.37;;;;;;;34.15;32.93;95263.06;5111518;28;20442;-52
2023/08/18 07:50:37;;;;;;;0.43;0.30;;;;;;;35.12;31.04;95246.91;5112043;28;20189;-51
2023/08/18 07:53:05;;;;;;;0.40;0.40;;;;;;;35.63;31.10;95226.75;5111280;28;20196;-51
2023/08/18 07:55:33;;;;;;;0.50;0.40;;;;;;;36.23;30.26;95252.78;5111704;28;20251;-51
2023/08/18 07:58:03;;;;;;;0.40;0.33;;;;;;;35.93;30.38;95245.66;5110850;28;20201;-51
2023/08/18 08:00:32;;;;;;;0.50;0.43;;;;;;;36.79;29.13;95242.09;5111395;28;20193;-51
2023/08/18 08:03:01;;;;;;;0.40;0.30;;;;;;;36.99;28.94;95248.22;5111623;28;20246;-51
2023/08/18 08:05:30;;;;;;;0.40;0.30;;;;;;;37.04;29.47;95244.16;5110967;28;20670;-51
2023/08/18 08:07:58;;;;;;;0.50;0.40;;;;;;;37.06;28.66;95242.50;5111670;28;20189;-51
2023/08/18 08:10:26;;;;;;;0.30;0.30;;;;;;;36.78;30.47;95244.13;5111711;28;20189;-51
2023/08/18 08:12:55;;;;;;;0.80;0.80;;;;;;;36.21;30.88;95246.91;5110999;28;20189;-50
2023/08/18 08:15:24;;;;;;;0.40;0.32;;;;;;;36.27;30.86;95245.19;5111714;28;20228;-51
2023/08/18 08:17:53;;;;;;;0.50;0.50;;;;;;;36.59;30.30;95239.53;5110946;28;20201;-50
2023/08/18 08:20:21;;;;;;;0.45;0.40;;;;;;;37.22;30.02;95234.06;5110921;28;20204;-50
2023/08/18 08:22:51;;;;;;;2.42;0.30;;;;;;;37.97;28.15;95218.59;5111215;28;20300;-50
2023/08/18 08:25:19;;;;;;;0.77;0.77;;;;;;;37.92;28.37;95202.56;5111559;28;20189;-50
2023/08/18 08:27:51;;;;;;;0.40;0.30;;;;;;;38.29;28.30;95209.13;5111267;28;20726;-50
2023/08/18 08:30:28;;;;;;;0.30;0.30;;;;;;;38.13;28.70;95204.56;5111379;28;20208;-50
2023/08/18 08:32:59;;;;;;;0.30;0.30;;;;;;;38.12;27.71;95208.56;5111333;28;20292;-50
2023/08/18 08:35:28;;;;;;;0.47;0.40;;;;;;;38.60;27.36;95210.78;5114098;28;20192;-50
2023/08/18 08:37:57;;;;;;;0.40;0.30;;;;;;;38.74;26.63;95203.94;5115125;28;20197;-50
2023/08/18 08:40:25;;;;;;;0.30;0.30;;;;;;;37.90;27.65;95164.25;5114549;28;20193;-50
2023/08/18 08:42:56;;;;;;;0.88;0.45;;;;;;;38.05;28.34;95203.28;5114683;27;20215;-51
2023/08/18 08:45:34;;;;;;;0.50;0.47;;;;;;;37.34;27.79;95178.00;5114577;28;20655;-50
2023/08/18 08:48:07;;;;;;;0.40;0.30;;;;;;;37.60;28.38;95200.13;5115319;28;20254;-50
2023/08/18 08:50:39;;;;;;;0.73;0.73;;;;;;;38.59;27.18;95191.81;5114351;28;20264;-50
2023/08/18 08:53:11;;;;;;;0.43;0.43;;;;;;;37.69;27.81;95192.66;5114310;28;20197;-50
2023/08/18 08:55:43;;;;;;;0.40;0.30;;;;;;;38.08;27.90;95188.53;5114585;28;20549;-50
2023/08/18 08:58:12;;;;;;;1.25;0.47;;;;;;;38.26;26.87;95183.13;5115133;28;20525;-50
2023/08/18 09:00:43;;;;;;;1.10;0.30;;;;;;;38.52;26.34;95184.56;5114689;28;20246;-50
2023/08/18 09:03:12;;;;;;;0.30;0.22;;;;;;;38.36;27.63;95184.75;5114791;28;20246;-51
2023/08/18 09:05:40;;;;;;;0.55;0.55;;;;;;;39.21;26.87;95178.75;5114047;28;20655;-51
2023/08/18 09:08:09;;;;;;;0.30;0.20;;;;;;;39.03;25.83;95162.03;5113466;28;20622;-51
2023/08/18 09:10:39;;;;;;;0.30;0.30;;;;;;;39.40;26.71;95154.56;5113923;28;20195;-51
2023/08/18 09:13:08;;;;;;;0.50;0.38;;;;;;;40.08;25.84;95176.25;5113916;28;20272;-51
2023/08/18 09:15:36;;;;;;;0.30;0.30;;;;;;;40.08;25.59;95164.41;5113742;28;20675;-53
2023/08/18 09:18:07;;;;;;;0.47;0.38;;;;;;;40.22;25.14;95164.53;5114024;28;20201;-51
2023/08/18 09:20:36;;;;;;;0.40;0.40;;;;;;;39.72;24.04;95154.03;5114221;28;20575;-51
2023/08/18 09:23:05;;;;;;;0.50;0.50;;;;;;;39.72;25.50;95156.81;5114633;28;20217;-51
2023/08/18 09:25:35;;;;;;;4.82;0.73;;;;;;;39.53;25.12;95158.00;5113991;28;20254;-50
2023/08/18 09:28:05;;;;;;;0.50;0.30;;;;;;;40.25;24.32;95151.72;5114271;27;20246;-57
2023/08/18 09:30:42;;;;;;;0.30;0.20;;;;;;;40.63;23.98;95146.41;5113963;28;20281;-56
2023/08/18 09:33:12;;;;;;;1.10;1.10;;;;;;;40.58;23.98;95141.47;5114021;28;20275;-56
2023/08/18 09:35:40;;;;;;;0.30;0.30;;;;;;;40.28;23.73;95148.00;5108629;28;20197;-56
2023/08/18 09:38:13;;;;;;;0.30;0.30;;;;;;;39.97;25.05;95142.63;5105093;28;20205;-56
2023/08/18 09:40:41;;;;;;;0.50;0.50;;;;;;;40.10;24.54;95142.47;5113503;28;20222;-56
2023/08/18 09:43:16;;;;;;;8.55;0.30;;;;;;;40.16;26.05;95130.28;5113837;28;20248;-55
2023/08/18 09:45:45;;;;;;;0.60;0.50;;;;;;;40.53;23.57;95134.53;5112646;28;20250;-55
2023/08/18 09:48:17;;;;;;;0.30;0.30;;;;;;;40.83;23.88;95118.81;5099706;28;20274;-55
2023/08/18 09:50:50;;;;;;;1.52;1.42;;;;;;;41.05;23.40;95136.03;5113484;28;20289;-56
2023/08/18 09:53:22;;;;;;;0.30;0.30;;;;;;;41.87;23.66;95134.75;5113693;28;20200;-56
2023/08/18 09:55:54;;;;;;;0.40;0.40;;;;;;;41.62;22.81;95133.22;5113055;28;20276;-57
2023/08/18 09:58:33;;;;;;;0.30;0.30;;;;;;;41.60;23.22;95136.47;5112833;28;20189;-57
2023/08/18 10:01:05;;;;;;;0.30;0.30;;;;;;;41.40;22.60;95086.22;5100321;28;20284;-58
2023/08/18 10:03:38;;;;;;;0.40;0.30;;;;;;;41.46;23.62;95148.34;5085396;28;20241;-57
2023/08/18 10:06:07;;;;;;;0.63;0.63;;;;;;;40.71;22.79;95138.50;5112382;28;20193;-57
2023/08/18 10:08:36;;;;;;;0.47;0.38;;;;;;;40.52;23.60;95135.00;5113253;28;20201;-57
2023/08/18 10:11:05;;;;;;;0.40;0.30;;;;;;;40.10;23.20;95061.97;5113516;28;20719;-57
2023/08/18 10:13:34;;;;;;;0.30;0.30;;;;;;;40.87;24.79;95119.41;5113318;28;20193;-56
2023/08/18 10:16:04;;;;;;;0.85;0.57;;;;;;;40.68;23.34;95112.41;5113594;28;20309;-57
2023/08/18 10:18:34;;;;;;;0.20;0.20;;;;;;;41.90;22.20;95120.63;5112975;28;20276;-57
2023/08/18 10:21:03;;;;;;;0.47;0.47;;;;;;;42.01;21.93;95118.06;5113110;28;20211;-57
2023/08/18 10:23:32;;;;;;;0.40;0.30;;;;;;;42.25;20.68;95102.06;5113324;28;20213;-57
2023/08/18 10:26:03;;;;;;;0.30;0.30;;;;;;;41.73;20.91;95105.63;5112782;28;20238;-57
2023/08/18 10:28:34;;;;;;;0.40;0.30;;;;;;;41.74;21.67;95107.19;5113254;28;20193;-57
2023/08/18 10:31:07;;;;;;;0.40;0.40;;;;;;;41.27;22.00;95107.16;5107031;28;20198;-57
2023/08/18 10:33:43;;;;;;;0.30;0.25;;;;;;;41.42;21.62;95105.25;5106218;28;20203;-57
2023/08/18 10:36:18;;;;;;;0.30;0.20;;;;;;;41.90;21.41;95101.13;5112969;28;20189;-57
2023/08/18 10:38:46;;;;;;;0.30;0.30;;;;;;;41.20;21.45;95097.16;5112603;28;20342;-58
2023/08/18 10:41:25;;;;;;;0.65;0.65;;;;;;;40.58;21.66;95097.00;5112884;28;20639;-57
2023/08/18 10:43:56;;;;;;;0.40;0.38;;;;;;;40.61;21.96;95062.72;5111955;28;20263;-57
2023/08/18 10:46:33;;;;;;;0.30;0.30;;;;;;;40.93;22.21;95095.31;5112590;28;20288;-57
2023/08/18 10:49:04;;;;;;;0.30;0.30;;;;;;;41.19;21.29;95088.03;5112516;28;20277;-57
2023/08/18 10:51:34;;;;;;;0.50;0.40;;;;;;;41.52;21.67;95085.19;5111910;28;20655;-57
2023/08/18 10:54:03;;;;;;;0.30;0.30;;;;;;;41.86;21.03;95067.16;5112408;28;20193;-58
2023/08/18 10:56:31;;;;;;;0.50;0.40;;;;;;;41.47;20.51;95080.28;5111827;28;20659;-57
2023/08/18 10:59:00;;;;;;;1.30;0.40;;;;;;;41.87;20.27;95076.28;5112323;28;20254;-58
2023/08/18 11:01:28;;;;;;;17.65;0.40;;;;;;;41.47;20.50;95083.06;5112658;28;20613;-58
2023/08/18 11:03:56;;;;;;;0.20;0.20;;;;;;;41.80;21.23;95085.03;5112057;28;20251;-58
2023/08/18 11:06:27;;;;;;;0.60;0.43;;;;;;;42.01;20.38;95042.88;5111815;28;20648;-58
2023/08/18 11:08:55;;;;;;;0.73;0.73;;;;;;;42.46;20.25;95077.06;5112331;28;20253;-59
2023/08/18 11:11:23;;;;;;;0.40;0.40;;;;;;;42.55;20.61;95061.03;5111962;28;20184;-60
2023/08/18 11:13:52;;;;;;;0.30;0.30;;;;;;;42.26;20.43;95072.19;5112028;28;20284;-59
2023/08/18 11:16:23;;;;;;;0.30;0.20;;;;;;;42.47;20.46;95073.03;5112481;28;20197;-59
2023/08/18 11:18:52;;;;;;;0.32;0.28;;;;;;;43.17;20.77;95071.03;5112285;28;20193;-59
2023/08/18 11:21:20;;;;;;;0.30;0.30;;;;;;;43.53;20.29;95064.94;5111914;28;20197;-59
2023/08/18 11:23:50;;;;;;;0.40;0.40;;;;;;;42.52;20.51;95047.28;5111627;28;20615;-59
2023/08/18 11:26:18;;;;;;;0.30;0.30;;;;;;;42.65;20.68;95062.47;5085203;28;20585;-59
2023/08/18 11:28:47;;;;;;;0.30;0.30;;;;;;;42.32;21.29;95053.53;5111792;28;20200;-59
2023/08/18 11:31:15;;;;;;;0.50;0.50;;;;;;;42.26;20.08;95049.88;5111368;28;20224;-59
2023/08/18 11:33:43;;;;;;;0.35;0.30;;;;;;;42.88;22.22;95044.03;5111224;28;20197;-58
2023/08/18 11:36:12;;;;;;;0.35;0.30;;;;;;;42.84;21.53;95046.25;5111690;28;20270;-59
2023/08/18 11:38:40;;;;;;;0.45;0.40;;;;;;;42.33;20.77;95002.13;5111737;28;20700;-59
2023/08/18 11:41:10;;;;;;;0.30;0.20;;;;;;;42.53;21.71;95034.91;5111417;28;20197;-59
2023/08/18 11:43:39;;;;;;;0.55;0.55;;;;;;;42.25;23.27;95040.75;5111449;28;20213;-59